sensor_id;sensor_type;location;lat;lon;timestamp;P1;durP1;ratioP1;P2;durP2;ratioP2
54853;SDS011;40747;49.480;8.658;2023-05-16T00:01:08;13.38;;;7.55;;
54853;SDS011;40747;49.480;8.658;2023-05-16T00:03:34;12.63;;;7.47;;
54853;SDS011;40747;49.480;8.658;2023-05-16T00:06:00;15.95;;;7.72;;
54853;SDS011;40747;49.480;8.658;2023-05-16T00:08:26;14.85;;;8.38;;
54853;SDS011;40747;49.480;8.658;2023-05-16T00:10:52;15.32;;;8.50;;
54853;SDS011;40747;49.480;8.658;2023-05-16T00:13:17;15.20;;;8.38;;
54853;SDS011;40747;49.480;8.658;2023-05-16T00:15:48;13.88;;;8.05;;
54853;SDS011;40747;49.480;8.658;2023-05-16T00:18:15;14.70;;;7.82;;
54853;SDS011;40747;49.480;8.658;2023-05-16T00:20:41;18.20;;;9.20;;
54853;SDS011;40747;49.480;8.658;2023-05-16T00:23:06;18.27;;;9.18;;
54853;SDS011;40747;49.480;8.658;2023-05-16T00:25:31;17.13;;;8.60;;
54853;SDS011;40747;49.480;8.658;2023-05-16T00:27:57;15.57;;;8.38;;
54853;SDS011;40747;49.480;8.658;2023-05-16T00:30:22;15.95;;;8.90;;
54853;SDS011;40747;49.480;8.658;2023-05-16T00:32:47;16.52;;;9.32;;
54853;SDS011;40747;49.480;8.658;2023-05-16T00:35:13;17.05;;;8.85;;
54853;SDS011;40747;49.480;8.658;2023-05-16T00:37:38;17.15;;;9.15;;
54853;SDS011;40747;49.480;8.658;2023-05-16T00:40:04;23.35;;;9.60;;
54853;SDS011;40747;49.480;8.658;2023-05-16T00:42:30;16.38;;;8.80;;
54853;SDS011;40747;49.480;8.658;2023-05-16T00:44:55;19.17;;;9.98;;
54853;SDS011;40747;49.480;8.658;2023-05-16T00:47:21;21.73;;;10.48;;
54853;SDS011;40747;49.480;8.658;2023-05-16T00:49:46;19.83;;;9.68;;
54853;SDS011;40747;49.480;8.658;2023-05-16T00:52:12;19.33;;;9.55;;
54853;SDS011;40747;49.480;8.658;2023-05-16T00:54:37;22.70;;;9.63;;
54853;SDS011;40747;49.480;8.658;2023-05-16T00:57:03;22.50;;;10.85;;
54853;SDS011;40747;49.480;8.658;2023-05-16T00:59:30;19.33;;;10.13;;
54853;SDS011;40747;49.480;8.658;2023-05-16T01:01:55;17.30;;;9.88;;
54853;SDS011;40747;49.480;8.658;2023-05-16T01:04:20;20.10;;;9.68;;
54853;SDS011;40747;49.480;8.658;2023-05-16T01:06:46;20.00;;;10.25;;
54853;SDS011;40747;49.480;8.658;2023-05-16T01:09:11;22.30;;;9.75;;
54853;SDS011;40747;49.480;8.658;2023-05-16T01:14:16;19.55;;;10.98;;
54853;SDS011;40747;49.480;8.658;2023-05-16T01:16:50;21.85;;;10.40;;
54853;SDS011;40747;49.480;8.658;2023-05-16T01:22:18;22.52;;;11.13;;
54853;SDS011;40747;49.480;8.658;2023-05-16T01:25:37;28.17;;;12.73;;
54853;SDS011;40747;49.480;8.658;2023-05-16T01:27:56;22.98;;;11.07;;
54853;SDS011;40747;49.480;8.658;2023-05-16T01:30:23;21.23;;;11.27;;
54853;SDS011;40747;49.480;8.658;2023-05-16T01:32:49;25.00;;;13.40;;
54853;SDS011;40747;49.480;8.658;2023-05-16T01:35:15;23.75;;;12.07;;
54853;SDS011;40747;49.480;8.658;2023-05-16T01:37:43;22.98;;;13.25;;
54853;SDS011;40747;49.480;8.658;2023-05-16T01:40:15;22.67;;;11.82;;
54853;SDS011;40747;49.480;8.658;2023-05-16T01:42:48;27.92;;;12.27;;
54853;SDS011;40747;49.480;8.658;2023-05-16T01:45:19;26.27;;;13.00;;
54853;SDS011;40747;49.480;8.658;2023-05-16T01:48:06;25.92;;;11.07;;
54853;SDS011;40747;49.480;8.658;2023-05-16T01:50:35;23.27;;;12.05;;
54853;SDS011;40747;49.480;8.658;2023-05-16T01:53:06;22.45;;;10.73;;
54853;SDS011;40747;49.480;8.658;2023-05-16T01:55:45;22.92;;;10.27;;
54853;SDS011;40747;49.480;8.658;2023-05-16T01:58:11;32.67;;;12.95;;
54853;SDS011;40747;49.480;8.658;2023-05-16T02:00:39;24.15;;;11.75;;
54853;SDS011;40747;49.480;8.658;2023-05-16T02:03:05;23.55;;;12.32;;
54853;SDS011;40747;49.480;8.658;2023-05-16T02:05:31;26.58;;;13.07;;
54853;SDS011;40747;49.480;8.658;2023-05-16T02:07:57;26.63;;;13.25;;
54853;SDS011;40747;49.480;8.658;2023-05-16T02:10:23;28.77;;;12.65;;
54853;SDS011;40747;49.480;8.658;2023-05-16T02:12:49;30.00;;;13.35;;
54853;SDS011;40747;49.480;8.658;2023-05-16T02:15:15;26.58;;;12.90;;
54853;SDS011;40747;49.480;8.658;2023-05-16T02:17:41;26.73;;;13.20;;
54853;SDS011;40747;49.480;8.658;2023-05-16T02:20:07;36.05;;;15.45;;
54853;SDS011;40747;49.480;8.658;2023-05-16T02:22:36;28.33;;;15.18;;
54853;SDS011;40747;49.480;8.658;2023-05-16T02:25:03;29.23;;;13.75;;
54853;SDS011;40747;49.480;8.658;2023-05-16T02:27:30;34.97;;;14.02;;
54853;SDS011;40747;49.480;8.658;2023-05-16T02:29:56;27.08;;;13.48;;
54853;SDS011;40747;49.480;8.658;2023-05-16T02:32:22;29.35;;;13.52;;
54853;SDS011;40747;49.480;8.658;2023-05-16T02:34:47;30.13;;;13.52;;
54853;SDS011;40747;49.480;8.658;2023-05-16T02:37:13;25.25;;;13.50;;
54853;SDS011;40747;49.480;8.658;2023-05-16T02:39:38;32.10;;;15.73;;
54853;SDS011;40747;49.480;8.658;2023-05-16T02:42:04;37.65;;;15.77;;
54853;SDS011;40747;49.480;8.658;2023-05-16T02:44:30;28.38;;;13.60;;
54853;SDS011;40747;49.480;8.658;2023-05-16T02:46:56;30.10;;;14.25;;
54853;SDS011;40747;49.480;8.658;2023-05-16T02:49:21;31.05;;;15.35;;
54853;SDS011;40747;49.480;8.658;2023-05-16T02:51:47;31.55;;;15.18;;
54853;SDS011;40747;49.480;8.658;2023-05-16T02:54:12;30.45;;;15.02;;
54853;SDS011;40747;49.480;8.658;2023-05-16T02:56:37;34.58;;;16.83;;
54853;SDS011;40747;49.480;8.658;2023-05-16T02:59:03;42.13;;;16.83;;
54853;SDS011;40747;49.480;8.658;2023-05-16T03:01:29;33.25;;;15.55;;
54853;SDS011;40747;49.480;8.658;2023-05-16T03:03:54;34.20;;;17.25;;
54853;SDS011;40747;49.480;8.658;2023-05-16T03:06:20;36.72;;;16.45;;
54853;SDS011;40747;49.480;8.658;2023-05-16T03:08:45;29.58;;;14.70;;
54853;SDS011;40747;49.480;8.658;2023-05-16T03:11:11;30.23;;;15.43;;
54853;SDS011;40747;49.480;8.658;2023-05-16T03:13:37;36.78;;;16.33;;
54853;SDS011;40747;49.480;8.658;2023-05-16T03:16:02;30.75;;;13.82;;
54853;SDS011;40747;49.480;8.658;2023-05-16T03:18:28;30.27;;;13.63;;
54853;SDS011;40747;49.480;8.658;2023-05-16T03:20:54;41.50;;;16.77;;
54853;SDS011;40747;49.480;8.658;2023-05-16T03:23:20;30.50;;;15.32;;
54853;SDS011;40747;49.480;8.658;2023-05-16T03:25:45;32.70;;;16.38;;
54853;SDS011;40747;49.480;8.658;2023-05-16T03:28:11;29.65;;;13.98;;
54853;SDS011;40747;49.480;8.658;2023-05-16T03:30:37;38.58;;;14.88;;
54853;SDS011;40747;49.480;8.658;2023-05-16T03:33:02;32.55;;;14.88;;
54853;SDS011;40747;49.480;8.658;2023-05-16T03:35:28;35.55;;;15.90;;
54853;SDS011;40747;49.480;8.658;2023-05-16T03:37:55;28.25;;;13.93;;
54853;SDS011;40747;49.480;8.658;2023-05-16T03:40:21;32.42;;;14.75;;
54853;SDS011;40747;49.480;8.658;2023-05-16T03:42:46;28.48;;;13.00;;
54853;SDS011;40747;49.480;8.658;2023-05-16T03:45:12;29.20;;;13.98;;
54853;SDS011;40747;49.480;8.658;2023-05-16T03:47:37;23.88;;;12.57;;
54853;SDS011;40747;49.480;8.658;2023-05-16T03:50:03;30.92;;;12.27;;
54853;SDS011;40747;49.480;8.658;2023-05-16T03:52:29;30.10;;;15.50;;
54853;SDS011;40747;49.480;8.658;2023-05-16T03:54:54;25.90;;;12.52;;
54853;SDS011;40747;49.480;8.658;2023-05-16T03:57:20;18.70;;;10.40;;
54853;SDS011;40747;49.480;8.658;2023-05-16T03:59:45;30.05;;;13.40;;
54853;SDS011;40747;49.480;8.658;2023-05-16T04:02:10;27.33;;;13.07;;
54853;SDS011;40747;49.480;8.658;2023-05-16T04:04:36;26.80;;;13.13;;
54853;SDS011;40747;49.480;8.658;2023-05-16T04:07:01;32.25;;;13.77;;
54853;SDS011;40747;49.480;8.658;2023-05-16T04:09:27;25.15;;;12.48;;
54853;SDS011;40747;49.480;8.658;2023-05-16T04:11:52;26.33;;;11.75;;
54853;SDS011;40747;49.480;8.658;2023-05-16T04:14:21;21.63;;;10.38;;
54853;SDS011;40747;49.480;8.658;2023-05-16T04:16:47;24.33;;;12.32;;
54853;SDS011;40747;49.480;8.658;2023-05-16T04:19:12;25.88;;;12.07;;
54853;SDS011;40747;49.480;8.658;2023-05-16T04:21:38;26.15;;;10.98;;
54853;SDS011;40747;49.480;8.658;2023-05-16T04:24:03;25.27;;;12.57;;
54853;SDS011;40747;49.480;8.658;2023-05-16T04:26:29;17.65;;;9.43;;
54853;SDS011;40747;49.480;8.658;2023-05-16T04:28:55;20.27;;;9.40;;
54853;SDS011;40747;49.480;8.658;2023-05-16T04:31:22;16.90;;;9.50;;
54853;SDS011;40747;49.480;8.658;2023-05-16T04:33:49;26.10;;;11.65;;
54853;SDS011;40747;49.480;8.658;2023-05-16T04:36:14;16.83;;;9.30;;
54853;SDS011;40747;49.480;8.658;2023-05-16T04:38:40;23.30;;;9.50;;
54853;SDS011;40747;49.480;8.658;2023-05-16T04:41:07;22.45;;;9.68;;
54853;SDS011;40747;49.480;8.658;2023-05-16T04:43:33;20.52;;;9.20;;
54853;SDS011;40747;49.480;8.658;2023-05-16T04:45:59;21.98;;;11.15;;
54853;SDS011;40747;49.480;8.658;2023-05-16T04:48:24;20.48;;;10.52;;
54853;SDS011;40747;49.480;8.658;2023-05-16T04:50:49;19.52;;;10.10;;
54853;SDS011;40747;49.480;8.658;2023-05-16T04:53:15;18.63;;;10.25;;
54853;SDS011;40747;49.480;8.658;2023-05-16T04:55:40;16.98;;;8.82;;
54853;SDS011;40747;49.480;8.658;2023-05-16T04:58:06;18.90;;;9.27;;
54853;SDS011;40747;49.480;8.658;2023-05-16T05:00:32;20.05;;;9.48;;
54853;SDS011;40747;49.480;8.658;2023-05-16T05:02:57;19.13;;;9.68;;
54853;SDS011;40747;49.480;8.658;2023-05-16T05:05:22;20.40;;;9.82;;
54853;SDS011;40747;49.480;8.658;2023-05-16T05:07:48;20.85;;;8.75;;
54853;SDS011;40747;49.480;8.658;2023-05-16T05:10:13;29.98;;;10.60;;
54853;SDS011;40747;49.480;8.658;2023-05-16T05:12:38;17.80;;;9.48;;
54853;SDS011;40747;49.480;8.658;2023-05-16T05:15:04;18.40;;;8.88;;
54853;SDS011;40747;49.480;8.658;2023-05-16T05:17:30;20.77;;;8.35;;
54853;SDS011;40747;49.480;8.658;2023-05-16T05:19:55;22.48;;;8.80;;
54853;SDS011;40747;49.480;8.658;2023-05-16T05:22:21;19.13;;;9.40;;
54853;SDS011;40747;49.480;8.658;2023-05-16T05:24:46;20.45;;;9.30;;
54853;SDS011;40747;49.480;8.658;2023-05-16T05:27:11;17.52;;;7.82;;
54853;SDS011;40747;49.480;8.658;2023-05-16T05:29:37;22.48;;;8.50;;
54853;SDS011;40747;49.480;8.658;2023-05-16T05:32:02;16.50;;;7.75;;
54853;SDS011;40747;49.480;8.658;2023-05-16T05:34:28;14.43;;;7.32;;
54853;SDS011;40747;49.480;8.658;2023-05-16T05:36:53;27.05;;;10.25;;
54853;SDS011;40747;49.480;8.658;2023-05-16T05:39:18;18.13;;;7.85;;
54853;SDS011;40747;49.480;8.658;2023-05-16T05:41:44;17.85;;;8.73;;
54853;SDS011;40747;49.480;8.658;2023-05-16T05:44:09;15.15;;;6.97;;
54853;SDS011;40747;49.480;8.658;2023-05-16T05:46:34;15.25;;;8.27;;
54853;SDS011;40747;49.480;8.658;2023-05-16T05:49:00;19.42;;;8.38;;
54853;SDS011;40747;49.480;8.658;2023-05-16T05:51:26;18.67;;;8.45;;
54853;SDS011;40747;49.480;8.658;2023-05-16T05:53:54;17.42;;;8.27;;
54853;SDS011;40747;49.480;8.658;2023-05-16T05:56:20;19.58;;;10.27;;
54853;SDS011;40747;49.480;8.658;2023-05-16T05:58:45;19.80;;;9.20;;
54853;SDS011;40747;49.480;8.658;2023-05-16T06:01:11;20.60;;;8.35;;
54853;SDS011;40747;49.480;8.658;2023-05-16T06:03:37;17.55;;;8.75;;
54853;SDS011;40747;49.480;8.658;2023-05-16T06:06:02;18.17;;;7.90;;
54853;SDS011;40747;49.480;8.658;2023-05-16T06:08:28;18.60;;;9.05;;
54853;SDS011;40747;49.480;8.658;2023-05-16T06:10:54;20.45;;;8.50;;
54853;SDS011;40747;49.480;8.658;2023-05-16T06:13:19;17.95;;;7.82;;
54853;SDS011;40747;49.480;8.658;2023-05-16T06:15:54;17.10;;;7.60;;
54853;SDS011;40747;49.480;8.658;2023-05-16T06:18:19;16.05;;;7.03;;
54853;SDS011;40747;49.480;8.658;2023-05-16T06:20:45;15.32;;;6.60;;
54853;SDS011;40747;49.480;8.658;2023-05-16T06:23:10;16.63;;;7.85;;
54853;SDS011;40747;49.480;8.658;2023-05-16T06:25:36;13.00;;;6.43;;
54853;SDS011;40747;49.480;8.658;2023-05-16T06:28:02;15.20;;;7.57;;
54853;SDS011;40747;49.480;8.658;2023-05-16T06:30:27;15.98;;;7.40;;
54853;SDS011;40747;49.480;8.658;2023-05-16T06:32:52;13.95;;;7.25;;
54853;SDS011;40747;49.480;8.658;2023-05-16T06:35:18;12.02;;;5.20;;
54853;SDS011;40747;49.480;8.658;2023-05-16T06:37:43;13.65;;;5.38;;
54853;SDS011;40747;49.480;8.658;2023-05-16T06:40:09;12.20;;;5.43;;
54853;SDS011;40747;49.480;8.658;2023-05-16T06:42:34;12.90;;;5.47;;
54853;SDS011;40747;49.480;8.658;2023-05-16T06:45:00;14.07;;;5.63;;
54853;SDS011;40747;49.480;8.658;2023-05-16T06:47:25;20.77;;;6.47;;
54853;SDS011;40747;49.480;8.658;2023-05-16T06:49:50;11.27;;;5.78;;
54853;SDS011;40747;49.480;8.658;2023-05-16T06:52:16;9.45;;;4.93;;
54853;SDS011;40747;49.480;8.658;2023-05-16T06:54:41;15.77;;;5.50;;
54853;SDS011;40747;49.480;8.658;2023-05-16T06:57:06;12.20;;;5.68;;
54853;SDS011;40747;49.480;8.658;2023-05-16T06:59:32;13.43;;;5.32;;
54853;SDS011;40747;49.480;8.658;2023-05-16T07:01:59;11.70;;;5.25;;
54853;SDS011;40747;49.480;8.658;2023-05-16T07:04:25;11.13;;;6.38;;
54853;SDS011;40747;49.480;8.658;2023-05-16T07:06:50;12.93;;;6.35;;
54853;SDS011;40747;49.480;8.658;2023-05-16T07:09:16;12.90;;;5.45;;
54853;SDS011;40747;49.480;8.658;2023-05-16T07:11:41;11.95;;;6.60;;
54853;SDS011;40747;49.480;8.658;2023-05-16T07:14:06;9.50;;;5.07;;
54853;SDS011;40747;49.480;8.658;2023-05-16T07:16:32;17.45;;;7.13;;
54853;SDS011;40747;49.480;8.658;2023-05-16T07:18:57;10.25;;;4.68;;
54853;SDS011;40747;49.480;8.658;2023-05-16T07:21:23;12.77;;;4.82;;
54853;SDS011;40747;49.480;8.658;2023-05-16T07:23:49;11.32;;;5.03;;
54853;SDS011;40747;49.480;8.658;2023-05-16T07:26:14;8.60;;;4.00;;
54853;SDS011;40747;49.480;8.658;2023-05-16T07:28:40;9.43;;;4.55;;
54853;SDS011;40747;49.480;8.658;2023-05-16T07:31:05;8.32;;;3.88;;
54853;SDS011;40747;49.480;8.658;2023-05-16T07:33:32;4.30;;;2.55;;
54853;SDS011;40747;49.480;8.658;2023-05-16T07:35:57;4.25;;;2.00;;
54853;SDS011;40747;49.480;8.658;2023-05-16T07:38:23;3.88;;;2.40;;
54853;SDS011;40747;49.480;8.658;2023-05-16T07:40:48;3.92;;;2.20;;
54853;SDS011;40747;49.480;8.658;2023-05-16T07:43:13;1.67;;;1.38;;
54853;SDS011;40747;49.480;8.658;2023-05-16T07:45:38;3.15;;;1.55;;
54853;SDS011;40747;49.480;8.658;2023-05-16T07:48:04;2.10;;;1.02;;
54853;SDS011;40747;49.480;8.658;2023-05-16T07:50:29;2.45;;;1.50;;
54853;SDS011;40747;49.480;8.658;2023-05-16T07:52:54;2.15;;;1.15;;
54853;SDS011;40747;49.480;8.658;2023-05-16T07:55:20;1.52;;;1.20;;
54853;SDS011;40747;49.480;8.658;2023-05-16T07:57:46;5.38;;;1.35;;
54853;SDS011;40747;49.480;8.658;2023-05-16T08:00:12;1.17;;;0.98;;
54853;SDS011;40747;49.480;8.658;2023-05-16T08:02:38;1.98;;;1.17;;
54853;SDS011;40747;49.480;8.658;2023-05-16T08:05:04;3.33;;;1.50;;
54853;SDS011;40747;49.480;8.658;2023-05-16T08:07:30;3.30;;;1.17;;
54853;SDS011;40747;49.480;8.658;2023-05-16T08:09:56;2.92;;;1.60;;
54853;SDS011;40747;49.480;8.658;2023-05-16T08:12:22;1.90;;;0.98;;
54853;SDS011;40747;49.480;8.658;2023-05-16T08:14:48;1.90;;;1.23;;
54853;SDS011;40747;49.480;8.658;2023-05-16T08:17:13;1.40;;;0.70;;
54853;SDS011;40747;49.480;8.658;2023-05-16T08:19:38;1.25;;;0.47;;
54853;SDS011;40747;49.480;8.658;2023-05-16T08:22:05;2.30;;;0.50;;
54853;SDS011;40747;49.480;8.658;2023-05-16T08:24:31;1.20;;;1.02;;
54853;SDS011;40747;49.480;8.658;2023-05-16T08:26:56;0.50;;;0.45;;
54853;SDS011;40747;49.480;8.658;2023-05-16T08:29:22;1.35;;;0.50;;
54853;SDS011;40747;49.480;8.658;2023-05-16T08:31:47;1.50;;;0.50;;
54853;SDS011;40747;49.480;8.658;2023-05-16T08:34:12;1.05;;;0.65;;
54853;SDS011;40747;49.480;8.658;2023-05-16T08:36:38;2.20;;;0.57;;
54853;SDS011;40747;49.480;8.658;2023-05-16T08:39:03;1.15;;;0.70;;
54853;SDS011;40747;49.480;8.658;2023-05-16T08:41:29;1.13;;;0.57;;
54853;SDS011;40747;49.480;8.658;2023-05-16T08:43:54;2.60;;;0.70;;
54853;SDS011;40747;49.480;8.658;2023-05-16T08:46:20;0.73;;;0.52;;
54853;SDS011;40747;49.480;8.658;2023-05-16T08:48:50;0.22;;;0.22;;
54853;SDS011;40747;49.480;8.658;2023-05-16T08:51:18;0.95;;;0.50;;
54853;SDS011;40747;49.480;8.658;2023-05-16T08:53:44;0.45;;;0.40;;
54853;SDS011;40747;49.480;8.658;2023-05-16T08:56:21;4.32;;;0.50;;
54853;SDS011;40747;49.480;8.658;2023-05-16T08:58:48;0.63;;;0.40;;
54853;SDS011;40747;49.480;8.658;2023-05-16T09:01:14;1.73;;;0.52;;
54853;SDS011;40747;49.480;8.658;2023-05-16T09:03:40;1.13;;;0.70;;
54853;SDS011;40747;49.480;8.658;2023-05-16T09:06:07;0.55;;;0.40;;
54853;SDS011;40747;49.480;8.658;2023-05-16T09:08:32;0.52;;;0.35;;
54853;SDS011;40747;49.480;8.658;2023-05-16T09:10:58;1.42;;;0.60;;
54853;SDS011;40747;49.480;8.658;2023-05-16T09:13:25;0.93;;;0.60;;
54853;SDS011;40747;49.480;8.658;2023-05-16T09:16:09;2.35;;;0.80;;
54853;SDS011;40747;49.480;8.658;2023-05-16T09:18:34;2.55;;;0.90;;
54853;SDS011;40747;49.480;8.658;2023-05-16T09:21:01;1.30;;;0.80;;
54853;SDS011;40747;49.480;8.658;2023-05-16T09:23:27;0.93;;;0.50;;
54853;SDS011;40747;49.480;8.658;2023-05-16T09:25:53;1.60;;;0.60;;
54853;SDS011;40747;49.480;8.658;2023-05-16T09:28:18;0.68;;;0.45;;
54853;SDS011;40747;49.480;8.658;2023-05-16T09:30:45;0.63;;;0.40;;
54853;SDS011;40747;49.480;8.658;2023-05-16T09:33:10;0.43;;;0.40;;
54853;SDS011;40747;49.480;8.658;2023-05-16T09:35:36;0.43;;;0.30;;
54853;SDS011;40747;49.480;8.658;2023-05-16T09:38:01;0.68;;;0.47;;
54853;SDS011;40747;49.480;8.658;2023-05-16T09:40:27;3.05;;;0.55;;
54853;SDS011;40747;49.480;8.658;2023-05-16T09:43:00;0.55;;;0.38;;
54853;SDS011;40747;49.480;8.658;2023-05-16T09:45:29;0.63;;;0.45;;
54853;SDS011;40747;49.480;8.658;2023-05-16T09:48:00;1.00;;;0.40;;
54853;SDS011;40747;49.480;8.658;2023-05-16T09:50:28;1.25;;;0.30;;
54853;SDS011;40747;49.480;8.658;2023-05-16T09:52:53;0.70;;;0.50;;
54853;SDS011;40747;49.480;8.658;2023-05-16T09:55:18;1.42;;;0.50;;
54853;SDS011;40747;49.480;8.658;2023-05-16T09:57:44;2.95;;;0.60;;
54853;SDS011;40747;49.480;8.658;2023-05-16T10:00:10;0.90;;;0.50;;
54853;SDS011;40747;49.480;8.658;2023-05-16T10:02:37;0.47;;;0.30;;
54853;SDS011;40747;49.480;8.658;2023-05-16T10:05:03;0.68;;;0.43;;
54853;SDS011;40747;49.480;8.658;2023-05-16T10:07:30;0.55;;;0.43;;
54853;SDS011;40747;49.480;8.658;2023-05-16T10:09:57;2.25;;;0.47;;
54853;SDS011;40747;49.480;8.658;2023-05-16T10:12:25;0.80;;;0.35;;
54853;SDS011;40747;49.480;8.658;2023-05-16T10:14:55;0.13;;;0.13;;
54853;SDS011;40747;49.480;8.658;2023-05-16T10:17:21;0.75;;;0.57;;
54853;SDS011;40747;49.480;8.658;2023-05-16T10:19:47;2.22;;;0.28;;
54853;SDS011;40747;49.480;8.658;2023-05-16T10:22:13;0.20;;;0.20;;
54853;SDS011;40747;49.480;8.658;2023-05-16T10:24:47;0.98;;;0.50;;
54853;SDS011;40747;49.480;8.658;2023-05-16T10:27:15;1.27;;;0.50;;
54853;SDS011;40747;49.480;8.658;2023-05-16T10:29:41;0.50;;;0.40;;
54853;SDS011;40747;49.480;8.658;2023-05-16T10:32:08;0.40;;;0.35;;
54853;SDS011;40747;49.480;8.658;2023-05-16T10:34:34;2.42;;;0.50;;
54853;SDS011;40747;49.480;8.658;2023-05-16T10:36:59;0.50;;;0.38;;
54853;SDS011;40747;49.480;8.658;2023-05-16T10:39:25;0.82;;;0.50;;
54853;SDS011;40747;49.480;8.658;2023-05-16T10:41:52;1.15;;;0.40;;
54853;SDS011;40747;49.480;8.658;2023-05-16T10:44:17;0.40;;;0.40;;
54853;SDS011;40747;49.480;8.658;2023-05-16T10:46:43;0.32;;;0.30;;
54853;SDS011;40747;49.480;8.658;2023-05-16T10:49:23;0.73;;;0.63;;
54853;SDS011;40747;49.480;8.658;2023-05-16T10:57:04;2.05;;;0.60;;
54853;SDS011;40747;49.480;8.658;2023-05-16T10:59:41;0.60;;;0.50;;
54853;SDS011;40747;49.480;8.658;2023-05-16T11:02:20;0.95;;;0.77;;
54853;SDS011;40747;49.480;8.658;2023-05-16T11:04:54;0.70;;;0.50;;
54853;SDS011;40747;49.480;8.658;2023-05-16T11:07:21;1.00;;;0.32;;
54853;SDS011;40747;49.480;8.658;2023-05-16T11:10:01;1.77;;;0.47;;
54853;SDS011;40747;49.480;8.658;2023-05-16T11:12:35;1.25;;;0.60;;
54853;SDS011;40747;49.480;8.658;2023-05-16T11:15:26;2.40;;;0.65;;
54853;SDS011;40747;49.480;8.658;2023-05-16T11:18:13;1.77;;;0.70;;
54853;SDS011;40747;49.480;8.658;2023-05-16T11:20:40;1.85;;;0.70;;
54853;SDS011;40747;49.480;8.658;2023-05-16T11:25:41;0.60;;;0.52;;
54853;SDS011;40747;49.480;8.658;2023-05-16T11:28:09;2.35;;;1.02;;
54853;SDS011;40747;49.480;8.658;2023-05-16T11:30:41;0.60;;;0.60;;
54853;SDS011;40747;49.480;8.658;2023-05-16T11:33:10;0.85;;;0.65;;
54853;SDS011;40747;49.480;8.658;2023-05-16T11:35:37;3.90;;;0.77;;
54853;SDS011;40747;49.480;8.658;2023-05-16T11:38:02;0.40;;;0.40;;
54853;SDS011;40747;49.480;8.658;2023-05-16T11:40:28;0.63;;;0.63;;
54853;SDS011;40747;49.480;8.658;2023-05-16T11:42:53;2.78;;;0.77;;
54853;SDS011;40747;49.480;8.658;2023-05-16T11:45:19;1.60;;;0.63;;
54853;SDS011;40747;49.480;8.658;2023-05-16T11:47:49;0.60;;;0.60;;
54853;SDS011;40747;49.480;8.658;2023-05-16T11:50:16;3.40;;;0.93;;
54853;SDS011;40747;49.480;8.658;2023-05-16T11:52:47;1.08;;;1.02;;
54853;SDS011;40747;49.480;8.658;2023-05-16T11:55:17;1.10;;;0.50;;
54853;SDS011;40747;49.480;8.658;2023-05-16T11:57:44;3.80;;;0.60;;
54853;SDS011;40747;49.480;8.658;2023-05-16T12:00:13;1.02;;;0.60;;
54853;SDS011;40747;49.480;8.658;2023-05-16T12:02:41;0.82;;;0.75;;
54853;SDS011;40747;49.480;8.658;2023-05-16T12:05:08;1.90;;;0.80;;
54853;SDS011;40747;49.480;8.658;2023-05-16T12:07:38;0.90;;;0.60;;
54853;SDS011;40747;49.480;8.658;2023-05-16T12:10:06;0.60;;;0.60;;
54853;SDS011;40747;49.480;8.658;2023-05-16T12:12:33;2.50;;;1.17;;
54853;SDS011;40747;49.480;8.658;2023-05-16T12:14:59;1.80;;;0.80;;
54853;SDS011;40747;49.480;8.658;2023-05-16T12:17:26;1.90;;;0.80;;
54853;SDS011;40747;49.480;8.658;2023-05-16T12:19:51;1.60;;;0.90;;
54853;SDS011;40747;49.480;8.658;2023-05-16T12:22:18;1.02;;;0.70;;
54853;SDS011;40747;49.480;8.658;2023-05-16T12:24:44;4.28;;;0.90;;
54853;SDS011;40747;49.480;8.658;2023-05-16T12:27:09;1.48;;;0.60;;
54853;SDS011;40747;49.480;8.658;2023-05-16T12:29:34;0.75;;;0.68;;
54853;SDS011;40747;49.480;8.658;2023-05-16T12:32:00;1.15;;;0.70;;
54853;SDS011;40747;49.480;8.658;2023-05-16T12:34:27;2.67;;;0.80;;
54853;SDS011;40747;49.480;8.658;2023-05-16T12:36:54;2.63;;;0.98;;
54853;SDS011;40747;49.480;8.658;2023-05-16T12:39:20;2.90;;;0.93;;
54853;SDS011;40747;49.480;8.658;2023-05-16T12:41:46;3.85;;;1.00;;
54853;SDS011;40747;49.480;8.658;2023-05-16T12:44:13;1.60;;;0.63;;
54853;SDS011;40747;49.480;8.658;2023-05-16T12:46:48;1.58;;;0.95;;
54853;SDS011;40747;49.480;8.658;2023-05-16T12:49:18;1.95;;;0.82;;
54853;SDS011;40747;49.480;8.658;2023-05-16T12:51:47;2.42;;;1.13;;
54853;SDS011;40747;49.480;8.658;2023-05-16T12:54:14;4.93;;;1.00;;
54853;SDS011;40747;49.480;8.658;2023-05-16T12:56:40;0.43;;;0.43;;
54853;SDS011;40747;49.480;8.658;2023-05-16T12:59:05;8.43;;;1.25;;
54853;SDS011;40747;49.480;8.658;2023-05-16T13:01:31;4.53;;;1.40;;
54853;SDS011;40747;49.480;8.658;2023-05-16T13:03:57;3.03;;;0.98;;
54853;SDS011;40747;49.480;8.658;2023-05-16T13:06:23;4.47;;;0.82;;
54853;SDS011;40747;49.480;8.658;2023-05-16T13:08:48;2.03;;;0.75;;
54853;SDS011;40747;49.480;8.658;2023-05-16T13:11:14;8.85;;;1.90;;
54853;SDS011;40747;49.480;8.658;2023-05-16T13:13:39;4.32;;;1.20;;
54853;SDS011;40747;49.480;8.658;2023-05-16T13:16:04;4.43;;;1.10;;
54853;SDS011;40747;49.480;8.658;2023-05-16T13:18:30;6.28;;;1.33;;
54853;SDS011;40747;49.480;8.658;2023-05-16T13:20:55;4.30;;;0.80;;
54853;SDS011;40747;49.480;8.658;2023-05-16T13:23:21;2.17;;;0.82;;
54853;SDS011;40747;49.480;8.658;2023-05-16T13:25:46;3.17;;;1.05;;
54853;SDS011;40747;49.480;8.658;2023-05-16T13:28:11;6.45;;;1.17;;
54853;SDS011;40747;49.480;8.658;2023-05-16T13:30:37;4.35;;;0.93;;
54853;SDS011;40747;49.480;8.658;2023-05-16T13:33:02;1.63;;;0.90;;
54853;SDS011;40747;49.480;8.658;2023-05-16T13:35:28;3.08;;;1.55;;
54853;SDS011;40747;49.480;8.658;2023-05-16T13:37:53;2.03;;;1.13;;
54853;SDS011;40747;49.480;8.658;2023-05-16T13:40:18;2.20;;;0.80;;
54853;SDS011;40747;49.480;8.658;2023-05-16T13:42:44;8.63;;;1.00;;
54853;SDS011;40747;49.480;8.658;2023-05-16T13:45:09;5.80;;;0.90;;
54853;SDS011;40747;49.480;8.658;2023-05-16T13:47:35;3.30;;;0.95;;
54853;SDS011;40747;49.480;8.658;2023-05-16T13:50:00;2.85;;;1.02;;
54853;SDS011;40747;49.480;8.658;2023-05-16T13:52:30;2.05;;;0.88;;
54853;SDS011;40747;49.480;8.658;2023-05-16T13:54:55;1.58;;;0.50;;
54853;SDS011;40747;49.480;8.658;2023-05-16T13:57:21;1.85;;;0.50;;
54853;SDS011;40747;49.480;8.658;2023-05-16T13:59:47;1.33;;;0.70;;
54853;SDS011;40747;49.480;8.658;2023-05-16T14:02:12;2.65;;;0.70;;
54853;SDS011;40747;49.480;8.658;2023-05-16T14:04:37;1.42;;;0.60;;
54853;SDS011;40747;49.480;8.658;2023-05-16T14:07:03;2.92;;;0.55;;
54853;SDS011;40747;49.480;8.658;2023-05-16T14:09:28;5.35;;;0.88;;
54853;SDS011;40747;49.480;8.658;2023-05-16T14:11:53;2.45;;;0.68;;
54853;SDS011;40747;49.480;8.658;2023-05-16T14:14:19;0.77;;;0.60;;
54853;SDS011;40747;49.480;8.658;2023-05-16T14:16:45;1.33;;;0.50;;
54853;SDS011;40747;49.480;8.658;2023-05-16T14:19:11;1.50;;;0.80;;
54853;SDS011;40747;49.480;8.658;2023-05-16T14:21:37;3.42;;;1.00;;
54853;SDS011;40747;49.480;8.658;2023-05-16T14:24:02;0.98;;;0.70;;
54853;SDS011;40747;49.480;8.658;2023-05-16T14:26:28;1.92;;;0.70;;
54853;SDS011;40747;49.480;8.658;2023-05-16T14:28:53;1.77;;;0.80;;
54853;SDS011;40747;49.480;8.658;2023-05-16T14:31:20;1.05;;;0.70;;
54853;SDS011;40747;49.480;8.658;2023-05-16T14:33:45;2.97;;;0.70;;
54853;SDS011;40747;49.480;8.658;2023-05-16T14:36:12;0.40;;;0.40;;
54853;SDS011;40747;49.480;8.658;2023-05-16T14:38:38;2.90;;;0.50;;
54853;SDS011;40747;49.480;8.658;2023-05-16T14:41:03;4.60;;;1.17;;
54853;SDS011;40747;49.480;8.658;2023-05-16T14:43:29;4.45;;;0.73;;
54853;SDS011;40747;49.480;8.658;2023-05-16T14:45:55;1.67;;;0.70;;
54853;SDS011;40747;49.480;8.658;2023-05-16T14:48:20;2.00;;;0.85;;